createdAt,value
2022-10-07T00:00:27.713Z,99640.06
2022-10-07T00:02:54.307Z,99638.41
2022-10-07T00:05:20.894Z,99631.69
2022-10-07T00:07:47.603Z,99635.66
2022-10-07T00:10:14.232Z,99633.19
2022-10-07T00:12:40.912Z,99630.19
2022-10-07T00:15:08.607Z,99633.09
2022-10-07T00:17:35.199Z,99621.50
2022-10-07T00:20:01.783Z,99628.94
2022-10-07T00:22:28.380Z,99619.06
2022-10-07T00:24:54.982Z,99618.72
2022-10-07T00:27:21.582Z,99616.63
2022-10-07T00:29:48.200Z,99616.88
2022-10-07T00:32:14.804Z,99599.50
2022-10-07T00:34:41.382Z,99607.09
2022-10-07T00:37:07.925Z,99603.75
2022-10-07T00:39:34.390Z,99593.66
2022-10-07T00:42:00.836Z,99588.09
2022-10-07T00:44:33.847Z,99590.28
2022-10-07T00:47:03.297Z,99594.56
2022-10-07T00:49:31.597Z,99590.28
2022-10-07T00:51:58.158Z,99585.50
2022-10-07T00:54:24.609Z,99577.25
2022-10-07T00:56:51.091Z,99571.13
2022-10-07T00:59:17.820Z,99564.97
2022-10-07T01:01:44.405Z,99567.66
2022-10-07T01:04:11.318Z,99571.13
2022-10-07T01:06:40.728Z,99564.16
2022-10-07T01:09:07.589Z,99558.03
2022-10-07T01:11:44.283Z,99553.16
2022-10-07T01:14:30.889Z,99540.88
2022-10-07T01:17:11.108Z,99540.31
2022-10-07T01:19:59.514Z,99545.06
2022-10-07T01:22:37.976Z,99536.25
2022-10-07T01:25:16.677Z,99534.63
2022-10-07T01:27:47.246Z,99537.28
2022-10-07T01:30:13.808Z,99545.06
2022-10-07T01:33:02.935Z,99537.28
2022-10-07T01:35:32.699Z,99536.84
2022-10-07T01:38:00.574Z,99526.16
2022-10-07T01:40:32.488Z,99528.34
2022-10-07T01:42:58.988Z,99516.84
2022-10-07T01:45:25.936Z,99518.16
2022-10-07T01:47:52.393Z,99510.97
2022-10-07T01:50:20.889Z,99509.91
2022-10-07T01:52:47.258Z,99513.38
2022-10-07T01:55:29.047Z,99510.97
2022-10-07T01:58:02.781Z,99509.31
2022-10-07T02:00:29.308Z,99501.31
2022-10-07T02:03:21.345Z,99498.66
2022-10-07T02:05:54.416Z,99493.56
2022-10-07T02:08:39.526Z,99497.28
2022-10-07T02:11:16.052Z,99490.09
2022-10-07T02:14:02.279Z,99488.81
2022-10-07T02:16:30.110Z,99486.16
2022-10-07T02:18:57.579Z,99487.75
2022-10-07T02:21:26.971Z,99481.63
2022-10-07T02:23:54.215Z,99477.00
2022-10-07T02:26:21.383Z,99475.47
2022-10-07T02:28:47.956Z,99477.31
2022-10-07T02:31:17.767Z,99470.34
2022-10-07T02:33:44.823Z,99469.56
2022-10-07T02:36:13.466Z,99474.88
2022-10-07T02:38:40.286Z,99468.41
2022-10-07T02:41:33.041Z,99466.78
2022-10-07T02:44:08.262Z,99461.91
2022-10-07T02:46:38.721Z,99461.72
2022-10-07T02:49:06.720Z,99461.91
2022-10-07T02:51:42.409Z,99456.59
2022-10-07T02:54:08.869Z,99452.91
2022-10-07T02:56:37.023Z,99452.41
2022-10-07T02:59:04.239Z,99452.75
2022-10-07T03:01:34.194Z,99453.56
2022-10-07T03:04:01.257Z,99445.88
2022-10-07T03:06:30.873Z,99443.56
2022-10-07T03:08:57.970Z,99443.88
2022-10-07T03:11:24.540Z,99439.94
2022-10-07T03:13:50.993Z,99444.69
2022-10-07T03:16:17.557Z,99440.16
2022-10-07T03:18:44.816Z,99434.84
2022-10-07T03:21:11.293Z,99435.06
2022-10-07T03:23:38.306Z,99433.69
2022-10-07T03:26:04.882Z,99439.25
2022-10-07T03:28:33.175Z,99435.78
2022-10-07T03:31:06.557Z,99427.22
2022-10-07T03:33:33.143Z,99424.53
2022-10-07T03:35:59.577Z,99414.13
2022-10-07T03:38:26.035Z,99419.22
2022-10-07T03:40:52.479Z,99416.53
2022-10-07T03:43:18.973Z,99416.28
2022-10-07T03:45:45.973Z,99415.50
2022-10-07T03:48:12.490Z,99412.34
2022-10-07T03:50:39.650Z,99419.28
2022-10-07T03:53:06.171Z,99423.56
2022-10-07T03:55:32.627Z,99411.53
2022-10-07T03:57:59.852Z,99412.34
2022-10-07T04:00:26.541Z,99409.09
2022-10-07T04:02:53.100Z,99400.28
2022-10-07T04:05:20.644Z,99409.34
2022-10-07T04:07:47.906Z,99397.53
2022-10-07T04:10:15.309Z,99399.16
2022-10-07T04:12:42.112Z,99394.63
2022-10-07T04:15:08.971Z,99398.34
2022-10-07T04:17:35.437Z,99397.06
2022-10-07T04:20:01.910Z,99394.16
2022-10-07T04:22:28.381Z,99394.16
2022-10-07T04:25:13.243Z,99392.28
2022-10-07T04:27:51.488Z,99390.19
2022-10-07T04:30:18.605Z,99384.06
2022-10-07T04:32:45.076Z,99385.69
2022-10-07T04:35:11.534Z,99386.47
2022-10-07T04:37:38.000Z,99385.88
2022-10-07T04:40:05.210Z,99391.22
2022-10-07T04:42:50.252Z,99391.47
2022-10-07T04:45:16.697Z,99386.38
2022-10-07T04:47:45.198Z,99386.38
2022-10-07T04:50:12.590Z,99383.72
2022-10-07T04:52:42.831Z,99377.34
2022-10-07T04:55:12.140Z,99377.34
2022-10-07T04:57:38.746Z,99374.13
2022-10-07T05:00:06.060Z,99368.53
2022-10-07T05:02:32.625Z,99366.91
2022-10-07T05:04:59.788Z,99371.44
2022-10-07T05:07:26.312Z,99361.81
2022-10-07T05:09:52.925Z,99360.44
2022-10-07T05:12:19.555Z,99369.50
2022-10-07T05:14:46.055Z,99360.09
2022-10-07T05:17:13.687Z,99361.16
2022-10-07T05:19:40.143Z,99361.16
2022-10-07T05:22:06.776Z,99360.09
2022-10-07T05:24:33.353Z,99355.81
2022-10-07T05:26:59.809Z,99353.50
2022-10-07T05:29:26.274Z,99352.44
2022-10-07T05:31:52.877Z,99351.13
2022-10-07T05:34:20.219Z,99354.59
2022-10-07T05:36:47.307Z,99348.25
2022-10-07T05:39:14.518Z,99349.03
2022-10-07T05:41:45.590Z,99351.22
2022-10-07T05:44:12.361Z,99343.22
2022-10-07T05:46:40.093Z,99352.03
2022-10-07T05:49:06.532Z,99346.47
2022-10-07T05:51:32.982Z,99343.00
2022-10-07T05:53:59.606Z,99345.41
2022-10-07T05:56:26.042Z,99342.19
2022-10-07T05:58:52.638Z,99351.00
2022-10-07T06:01:21.235Z,99348.06
2022-10-07T06:03:52.115Z,99343.53
2022-10-07T06:06:18.995Z,99348.78
2022-10-07T06:08:45.876Z,99339.78
2022-10-07T06:11:32.143Z,99333.63
2022-10-07T06:13:58.802Z,99336.22
2022-10-07T06:16:25.578Z,99333.81
2022-10-07T06:18:52.595Z,99325.78
2022-10-07T06:21:19.650Z,99330.56
2022-10-07T06:23:52.799Z,99332.19
2022-10-07T06:26:19.394Z,99326.84
2022-10-07T06:28:45.939Z,99330.88
2022-10-07T06:31:14.014Z,99333.47
2022-10-07T06:33:40.596Z,99324.38
2022-10-07T06:36:11.541Z,99326.47
2022-10-07T06:38:38.251Z,99330.84
2022-10-07T06:41:05.306Z,99329.91
2022-10-07T06:43:32.834Z,99331.47
2022-10-07T06:46:01.976Z,99332.59
2022-10-07T06:48:29.294Z,99332.13
2022-10-07T06:50:58.452Z,99323.69
2022-10-07T06:53:25.271Z,99333.94
2022-10-07T06:55:54.481Z,99330.47
2022-10-07T06:58:21.544Z,99328.81
2022-10-07T07:00:49.926Z,99328.72
2022-10-07T07:03:17.008Z,99325.09
2022-10-07T07:05:45.744Z,99323.25
2022-10-07T07:08:16.729Z,99321.25
2022-10-07T07:10:43.690Z,99314.06
2022-10-07T07:13:10.404Z,99314.06
2022-10-07T07:15:37.063Z,99317.22
2022-10-07T07:18:04.440Z,99313.97
2022-10-07T07:20:35.742Z,99313.63
2022-10-07T07:23:02.292Z,99316.13
2022-10-07T07:25:28.993Z,99316.13
2022-10-07T07:27:57.935Z,99318.06
2022-10-07T07:30:24.890Z,99319.84
2022-10-07T07:32:51.372Z,99319.47
2022-10-07T07:35:17.859Z,99315.56
2022-10-07T07:37:44.611Z,99313.41
2022-10-07T07:40:11.252Z,99313.56
2022-10-07T07:42:37.715Z,99312.34
2022-10-07T07:45:04.405Z,99311.72
2022-10-07T07:47:30.941Z,99310.44
2022-10-07T07:49:57.386Z,99307.59
2022-10-07T07:52:25.508Z,99306.78
2022-10-07T07:54:52.431Z,99298.84
2022-10-07T07:57:19.544Z,99302.09
2022-10-07T07:59:46.072Z,99298.38
2022-10-07T08:02:12.619Z,99302.72
2022-10-07T08:04:39.139Z,99305.66
2022-10-07T08:07:05.609Z,99295.88
2022-10-07T08:09:32.335Z,99303.78
2022-10-07T08:11:58.917Z,99300.50
2022-10-07T08:14:25.711Z,99305.91
2022-10-07T08:16:52.168Z,99296.50
2022-10-07T08:19:18.630Z,99290.75
2022-10-07T08:21:45.101Z,99296.91
2022-10-07T08:24:12.346Z,99293.19
2022-10-07T08:26:38.817Z,99295.09
2022-10-07T08:29:05.447Z,99283.69
2022-10-07T08:31:32.035Z,99288.56
2022-10-07T08:34:00.822Z,99285.63
2022-10-07T08:36:28.227Z,99287.50
2022-10-07T08:38:54.719Z,99293.69
2022-10-07T08:41:58.909Z,99287.38
2022-10-07T08:44:31.931Z,99282.84
2022-10-07T08:47:02.617Z,99278.56
2022-10-07T08:49:39.594Z,99275.13
2022-10-07T08:52:22.164Z,99277.31
2022-10-07T08:54:48.619Z,99269.56
2022-10-07T08:57:22.614Z,99266.16
2022-10-07T08:59:50.192Z,99265.03
2022-10-07T09:02:30.936Z,99253.09
2022-10-07T09:05:06.916Z,99254.81
2022-10-07T09:07:38.717Z,99253.19
2022-10-07T09:10:20.262Z,99245.41
2022-10-07T09:12:49.122Z,99242.41
2022-10-07T09:15:31.038Z,99241.59
2022-10-07T09:18:03.571Z,99238.47
2022-10-07T09:20:34.672Z,99237.63
2022-10-07T09:23:01.147Z,99234.00
2022-10-07T09:25:28.932Z,99234.56
2022-10-07T09:27:55.510Z,99225.16
2022-10-07T09:30:22.926Z,99227.09
2022-10-07T09:32:51.266Z,99235.66
2022-10-07T09:35:24.599Z,99225.22
2022-10-07T09:37:59.460Z,99222.88
2022-10-07T09:41:03.573Z,99227.09
2022-10-07T09:43:31.189Z,99223.19
2022-10-07T09:45:57.995Z,99224.78
2022-10-07T09:48:29.356Z,99219.06
2022-10-07T09:51:15.941Z,99212.50
2022-10-07T09:54:00.040Z,99213.53
2022-10-07T09:56:40.787Z,99215.44
2022-10-07T09:59:16.089Z,99216.50
2022-10-07T10:01:47.954Z,99197.00
2022-10-07T10:04:18.648Z,99201.59
2022-10-07T10:06:47.189Z,99201.06
2022-10-07T10:09:23.770Z,99200.53
2022-10-07T10:12:06.580Z,99197.53
2022-10-07T10:14:37.575Z,99192.28
2022-10-07T10:17:04.432Z,99184.00
2022-10-07T10:19:34.964Z,99184.72
2022-10-07T10:22:03.927Z,99176.44
2022-10-07T10:24:52.778Z,99174.34
2022-10-07T10:27:26.079Z,99169.22
2022-10-07T10:30:09.383Z,99173.00
2022-10-07T10:33:05.488Z,99161.25
2022-10-07T10:35:32.308Z,99158.88
2022-10-07T10:38:20.830Z,99159.66
2022-10-07T10:40:58.861Z,99157.59
2022-10-07T10:43:25.231Z,99151.75
2022-10-07T10:46:06.561Z,99150.19
2022-10-07T10:48:44.875Z,99148.31
2022-10-07T10:51:48.988Z,99145.34
2022-10-07T10:55:07.504Z,99136.78
2022-10-07T10:57:33.837Z,99130.59
2022-10-07T11:00:19.277Z,99135.72
2022-10-07T11:03:03.551Z,99126.13
2022-10-07T11:05:36.770Z,99118.91
2022-10-07T11:08:06.118Z,99117.56
2022-10-07T11:11:10.159Z,99112.56
2022-10-07T11:13:59.898Z,99103.47
2022-10-07T11:16:31.804Z,99091.75
2022-10-07T11:19:00.851Z,99104.59
2022-10-07T11:21:40.440Z,99097.88
2022-10-07T11:24:24.269Z,99081.88
2022-10-07T11:26:53.731Z,99073.00
2022-10-07T11:29:22.922Z,99067.66
2022-10-07T11:32:04.909Z,99070.03
2022-10-07T11:34:44.787Z,99077.50
2022-10-07T11:37:38.379Z,99069.84
2022-10-07T11:40:05.779Z,99061.13
2022-10-07T11:42:33.810Z,99058.66
2022-10-07T11:45:03.510Z,99046.72
2022-10-07T11:47:33.980Z,99036.03
2022-10-07T11:50:16.756Z,99030.19
2022-10-07T11:52:47.636Z,99022.88
2022-10-07T11:55:29.131Z,99023.69
2022-10-07T11:57:56.708Z,99025.31
2022-10-07T12:00:31.624Z,99018.38
2022-10-07T12:03:19.696Z,99008.69
2022-10-07T12:05:49.155Z,98999.13
2022-10-07T12:08:35.630Z,98993.66
2022-10-07T12:11:10.943Z,98990.47
2022-10-07T12:13:40.920Z,98988.22
2022-10-07T12:16:32.327Z,98993.41
2022-10-07T12:19:07.761Z,98976.00
2022-10-07T12:21:59.273Z,98978.13
2022-10-07T12:24:26.537Z,98969.56
2022-10-07T12:27:12.760Z,98972.81
2022-10-07T12:29:58.558Z,98968.75
2022-10-07T12:32:53.723Z,98967.38
2022-10-07T12:35:41.104Z,98963.41
2022-10-07T12:38:10.563Z,98959.16
2022-10-07T12:40:37.025Z,98960.47
2022-10-07T12:43:37.379Z,98947.91
2022-10-07T12:46:05.402Z,98945.78
2022-10-07T12:48:36.707Z,98941.88
2022-10-07T12:51:03.188Z,98941.94
2022-10-07T12:53:30.412Z,98949.63
2022-10-07T12:55:56.916Z,98942.16
2022-10-07T12:58:42.017Z,98940.84
2022-10-07T13:01:21.461Z,98944.28
2022-10-07T13:04:22.597Z,98935.44
2022-10-07T13:07:05.293Z,98924.16
2022-10-07T13:09:52.550Z,98927.06
2022-10-07T13:12:34.215Z,98922.03
2022-10-07T13:15:23.825Z,98930.25
2022-10-07T13:18:08.559Z,98922.28
2022-10-07T13:20:55.416Z,98915.03
2022-10-07T13:23:26.202Z,98922.28
2022-10-07T13:25:55.419Z,98915.00
2022-10-07T13:28:24.748Z,98901.94
2022-10-07T13:30:51.778Z,98911.34
2022-10-07T13:33:28.410Z,98897.22
2022-10-07T13:36:08.280Z,98895.31
2022-10-07T13:38:35.939Z,98888.88
2022-10-07T13:41:09.468Z,98881.44
2022-10-07T13:43:36.125Z,98877.84
2022-10-07T13:46:02.687Z,98877.38
2022-10-07T13:48:31.374Z,98877.63
2022-10-07T13:50:58.498Z,98874.72
2022-10-07T13:53:33.589Z,98860.06
2022-10-07T13:56:34.391Z,98867.72
2022-10-07T13:59:00.981Z,98862.88
2022-10-07T14:01:29.323Z,98854.66
2022-10-07T14:04:31.489Z,98853.50
2022-10-07T14:07:08.453Z,98851.53
2022-10-07T14:09:37.268Z,98851.09
2022-10-07T14:12:07.386Z,98845.13
2022-10-07T14:14:42.523Z,98833.13
2022-10-07T14:17:22.960Z,98825.34
2022-10-07T14:19:53.278Z,98829.69
2022-10-07T14:22:42.031Z,98826.38
2022-10-07T14:25:22.724Z,98831.34
2022-10-07T14:27:49.147Z,98825.97
2022-10-07T14:30:55.609Z,98820.91
2022-10-07T14:33:46.121Z,98809.44
2022-10-07T14:36:17.528Z,98808.34
2022-10-07T14:38:46.347Z,98803.00
2022-10-07T14:41:13.607Z,98807.25
2022-10-07T14:43:40.975Z,98801.66
2022-10-07T14:46:18.459Z,98793.34
2022-10-07T14:48:45.441Z,98794.66
2022-10-07T14:51:12.057Z,98792.84
2022-10-07T14:53:39.151Z,98796.53
2022-10-07T14:56:05.780Z,98790.41
2022-10-07T14:58:32.498Z,98786.41
2022-10-07T15:00:58.957Z,98782.41
2022-10-07T15:03:25.410Z,98780.00
2022-10-07T15:05:53.513Z,98771.44
2022-10-07T15:08:22.335Z,98774.66
2022-10-07T15:11:03.564Z,98763.47
2022-10-07T15:13:30.403Z,98767.72
2022-10-07T15:15:57.095Z,98768.00
2022-10-07T15:18:23.615Z,98756.97
2022-10-07T15:20:56.970Z,98759.41
2022-10-07T15:23:23.897Z,98756.22
2022-10-07T15:25:51.403Z,98753.81
2022-10-07T15:28:18.314Z,98754.56
2022-10-07T15:30:44.907Z,98746.31
2022-10-07T15:33:12.481Z,98745.47
2022-10-07T15:35:38.933Z,98738.78
2022-10-07T15:38:05.398Z,98748.41
2022-10-07T15:40:32.337Z,98746.78
2022-10-07T15:42:59.109Z,98746.78
2022-10-07T15:45:26.752Z,98745.75
2022-10-07T15:47:56.909Z,98741.97
2022-10-07T15:50:27.448Z,98737.69
2022-10-07T15:52:54.710Z,98740.88
2022-10-07T15:55:21.162Z,98738.44
2022-10-07T15:57:47.848Z,98732.31
2022-10-07T16:00:15.102Z,98726.97
2022-10-07T16:02:41.746Z,98724.03
2022-10-07T16:05:09.912Z,98721.63
2022-10-07T16:07:36.529Z,98718.94
2022-10-07T16:10:03.138Z,98722.69
2022-10-07T16:12:29.595Z,98720.00
2022-10-07T16:14:56.219Z,98719.47
2022-10-07T16:17:22.678Z,98721.34
2022-10-07T16:19:50.208Z,98730.38
2022-10-07T16:22:16.730Z,98717.31
2022-10-07T16:24:43.297Z,98721.28
2022-10-07T16:27:09.755Z,98708.47
2022-10-07T16:29:54.740Z,98721.28
2022-10-07T16:32:21.213Z,98710.88
2022-10-07T16:34:48.260Z,98708.22
2022-10-07T16:37:15.382Z,98707.69
2022-10-07T16:39:41.949Z,98703.38
2022-10-07T16:42:08.633Z,98693.78
2022-10-07T16:44:35.833Z,98693.25
2022-10-07T16:47:02.927Z,98691.38
2022-10-07T16:49:30.213Z,98690.84
2022-10-07T16:51:57.178Z,98701.50
2022-10-07T16:54:24.052Z,98700.69
2022-10-07T16:56:52.241Z,98693.22
2022-10-07T16:59:24.009Z,98700.41
2022-10-07T17:01:52.641Z,98694.50
2022-10-07T17:04:19.333Z,98700.09
2022-10-07T17:06:46.119Z,98691.03
2022-10-07T17:09:13.050Z,98699.31
2022-10-07T17:11:39.583Z,98697.94
2022-10-07T17:14:16.850Z,98700.06
2022-10-07T17:16:51.022Z,98696.03
2022-10-07T17:19:22.418Z,98693.94
2022-10-07T17:21:49.285Z,98692.31
2022-10-07T17:24:16.891Z,98694.16
2022-10-07T17:26:43.985Z,98690.47
2022-10-07T17:29:12.187Z,98691.22
2022-10-07T17:31:40.582Z,98692.31
2022-10-07T17:34:07.188Z,98688.84
2022-10-07T17:36:34.983Z,98689.09
2022-10-07T17:39:01.497Z,98679.53
2022-10-07T17:41:28.800Z,98680.59
2022-10-07T17:43:56.595Z,98686.19
2022-10-07T17:46:23.976Z,98679.81
2022-10-07T17:48:51.728Z,98680.84
2022-10-07T17:51:19.600Z,98682.97
2022-10-07T17:53:46.230Z,98687.81
2022-10-07T17:56:14.242Z,98684.03
2022-10-07T17:58:41.625Z,98684.28
2022-10-07T18:01:11.555Z,98690.44
2022-10-07T18:03:38.364Z,98688.56
2022-10-07T18:06:07.183Z,98680.81
2022-10-07T18:08:35.106Z,98678.13
2022-10-07T18:11:02.859Z,98686.94
2022-10-07T18:13:50.290Z,98687.78
2022-10-07T18:16:20.878Z,98680.00
2022-10-07T18:18:48.208Z,98681.88
2022-10-07T18:21:14.808Z,98678.66
2022-10-07T18:23:41.378Z,98678.09
2022-10-07T18:26:10.050Z,98679.16
2022-10-07T18:28:38.032Z,98682.63
2022-10-07T18:31:10.821Z,98674.63
2022-10-07T18:33:38.215Z,98676.75
2022-10-07T18:36:09.441Z,98672.47
2022-10-07T18:38:37.852Z,98672.72
2022-10-07T18:41:09.229Z,98673.78
2022-10-07T18:43:35.737Z,98668.22
2022-10-07T18:46:18.053Z,98660.47
2022-10-07T18:48:45.165Z,98662.34
2022-10-07T18:51:12.820Z,98660.47
2022-10-07T18:53:40.227Z,98650.63
2022-10-07T18:56:08.352Z,98647.94
2022-10-07T18:58:42.823Z,98654.06
2022-10-07T19:01:16.971Z,98649.00
2022-10-07T19:03:43.681Z,98649.00
2022-10-07T19:06:16.274Z,98641.53
2022-10-07T19:08:43.092Z,98642.09
2022-10-07T19:11:11.091Z,98646.59
2022-10-07T19:13:59.100Z,98639.66
2022-10-07T19:16:27.237Z,98638.06
2022-10-07T19:18:55.842Z,98641.78
2022-10-07T19:21:23.090Z,98640.97
2022-10-07T19:23:51.430Z,98640.41
2022-10-07T19:26:21.465Z,98648.66
2022-10-07T19:28:48.920Z,98645.22
2022-10-07T19:31:29.704Z,98638.00
2022-10-07T19:33:57.693Z,98645.22
2022-10-07T19:36:24.151Z,98643.81
2022-10-07T19:38:53.547Z,98643.59
2022-10-07T19:41:24.003Z,98632.16
2022-10-07T19:43:50.603Z,98632.16
2022-10-07T19:46:17.546Z,98639.53
2022-10-07T19:48:44.089Z,98642.22
2022-10-07T19:51:12.271Z,98632.34
2022-10-07T19:53:42.214Z,98633.16
2022-10-07T19:56:16.752Z,98631.56
2022-10-07T19:58:49.018Z,98623.81
2022-10-07T20:01:17.061Z,98621.16
2022-10-07T20:03:43.574Z,98620.34
2022-10-07T20:06:11.295Z,98621.16
2022-10-07T20:08:39.628Z,98613.41
2022-10-07T20:11:06.440Z,98616.91
2022-10-07T20:13:33.479Z,98619.78
2022-10-07T20:16:14.736Z,98622.47
2022-10-07T20:18:41.313Z,98623.53
2022-10-07T20:21:11.237Z,98616.81
2022-10-07T20:23:45.385Z,98619.50
2022-10-07T20:26:18.660Z,98623.47
2022-10-07T20:28:50.343Z,98623.19
2022-10-07T20:31:18.211Z,98615.22
2022-10-07T20:33:46.294Z,98625.00
2022-10-07T20:36:15.176Z,98618.59
2022-10-07T20:39:00.241Z,98617.53
2022-10-07T20:41:45.610Z,98617.53
2022-10-07T20:44:12.810Z,98618.38
2022-10-07T20:46:39.297Z,98620.22
2022-10-07T20:49:22.169Z,98617.81
2022-10-07T20:51:52.568Z,98619.94
2022-10-07T20:54:19.957Z,98614.34
2022-10-07T20:56:46.858Z,98613.28
2022-10-07T20:59:14.034Z,98606.09
2022-10-07T21:01:40.726Z,98606.88
2022-10-07T21:04:07.869Z,98612.47
2022-10-07T21:06:34.418Z,98596.75
2022-10-07T21:09:00.914Z,98598.38
2022-10-07T21:11:27.621Z,98591.16
2022-10-07T21:13:57.183Z,98590.09
2022-10-07T21:16:24.226Z,98591.16
2022-10-07T21:18:50.987Z,98585.84
2022-10-07T21:21:17.754Z,98579.47
2022-10-07T21:23:44.729Z,98588.81
2022-10-07T21:26:11.334Z,98581.63
2022-10-07T21:28:38.233Z,98579.22
2022-10-07T21:31:08.276Z,98569.59
2022-10-07T21:33:35.710Z,98576.56
2022-10-07T21:36:06.950Z,98570.44
2022-10-07T21:38:34.159Z,98562.69
2022-10-07T21:41:01.110Z,98564.53
2022-10-07T21:43:27.895Z,98571.47
2022-10-07T21:45:58.794Z,98569.59
2022-10-07T21:48:26.031Z,98563.47
2022-10-07T21:50:56.232Z,98555.75
2022-10-07T21:53:22.784Z,98563.22
2022-10-07T21:55:49.764Z,98560.00
2022-10-07T21:58:16.292Z,98555.47
2022-10-07T22:00:43.200Z,98553.63
2022-10-07T22:03:10.783Z,98560.56
2022-10-07T22:05:40.066Z,98554.44
2022-10-07T22:08:35.287Z,98549.38
2022-10-07T22:11:05.353Z,98538.19
2022-10-07T22:13:33.667Z,98541.06
2022-10-07T22:16:01.969Z,98541.63
2022-10-07T22:18:34.945Z,98548.03
2022-10-07T22:21:10.942Z,98544.00
2022-10-07T22:23:37.700Z,98532.53
2022-10-07T22:26:04.480Z,98536.81
2022-10-07T22:28:31.397Z,98533.84
2022-10-07T22:30:59.017Z,98534.38
2022-10-07T22:33:25.886Z,98529.03
2022-10-07T22:35:52.326Z,98524.78
2022-10-07T22:38:19.510Z,98527.44
2022-10-07T22:40:45.958Z,98523.16
2022-10-07T22:43:12.550Z,98525.81
2022-10-07T22:45:39.051Z,98527.94
2022-10-07T22:48:05.572Z,98526.34
2022-10-07T22:50:32.279Z,98524.22
2022-10-07T22:52:58.805Z,98514.91
2022-10-07T22:55:26.246Z,98517.56
2022-10-07T22:57:53.205Z,98517.00
2022-10-07T23:00:20.946Z,98510.34
2022-10-07T23:02:47.756Z,98502.88
2022-10-07T23:05:14.540Z,98500.22
2022-10-07T23:07:40.981Z,98501.03
2022-10-07T23:10:07.953Z,98497.28
2022-10-07T23:12:34.401Z,98493.84
2022-10-07T23:15:00.952Z,98487.72
2022-10-07T23:17:28.000Z,98485.84
2022-10-07T23:19:54.517Z,98486.09
2022-10-07T23:22:21.863Z,98491.16
2022-10-07T23:24:48.377Z,98485.31
2022-10-07T23:27:14.994Z,98479.72
2022-10-07T23:29:41.476Z,98482.38
2022-10-07T23:32:08.045Z,98478.91
2022-10-07T23:34:34.488Z,98480.78
2022-10-07T23:37:00.948Z,98477.31
2022-10-07T23:39:27.659Z,98478.91
2022-10-07T23:41:54.884Z,98473.59
2022-10-07T23:44:22.967Z,98469.34
2022-10-07T23:46:51.653Z,98468.53
2022-10-07T23:49:18.218Z,98473.28
2022-10-07T23:51:44.911Z,98475.16
2022-10-07T23:54:11.398Z,98465.31
2022-10-07T23:56:37.837Z,98466.38
2022-10-07T23:59:04.345Z,98466.63
